KHIO/HIO METAR and TAF weather

Enter ICAO airport designator
Station Type Date Time Source
KHIO METAR 2020/09/19 23:53 UTC NOAA

KHIO 192353Z 27006KT 10SM FEW047 BKN060 OVC080 20/14 A3007 RMK AO2 SLP182 T02000144 10217 20161 58008


Station Type Date Time Source
KHIO Decoded METAR 2020/09/19 23:53 UTC NOAA

PORTLAND-HILLSBORO AIRPORT, OR, United States (KHIO) 45-33N 122-57W 68M
Sep 19, 2020 - 07:53 PM EDT / 2020.09.19 2353 UTC
Wind: from the W (270 degrees) at 7 MPH (6 KT):0
Visibility: 10 mile(s):0
Sky conditions: overcast
Temperature: 68.0 F (20.0 C)
Dew Point: 57.9 F (14.4 C)
Relative Humidity: 70%
Pressure (altimeter): 30.07 in. Hg (1018 hPa)
Pressure tendency: 0.02 inches (0.8 hPa) lower than three hours ago
ob: KHIO 192353Z 27006KT 10SM FEW047 BKN060 OVC080 20/14 A3007 RMK AO2 SLP182 T02000144 10217 20161 58008
cycle: 0

Station Type Date Time Source
KHIO TAF 2020/09/19 22:33 UTC NOAA

TAF
AMD KHIO 192130Z 1922/2018 19006KT P6SM BKN019 BKN027 OVC050
FM200000 29005KT P6SM BKN045
FM201200 00000KT P6SM SCT010 OVC025

Example: see airport list